Time;durP1;ratioP1;P1;durP2;ratioP2;P2;SDS_P1;SDS_P2;PMS_P1;PMS_P2;Temp;Humidity;BMP_temperature;BMP_pressure;BME280_temperature;BME280_humidity;BME280_pressure;Samples;Min_cycle;Max_cycle;Signal;HPM_P1;HPM_P2
2021/06/13 00:01:16;;;;;;;5.23;4.73;;;16.30;99.90;;;;;;5114308;28;20793;-66
2021/06/13 00:03:43;;;;;;;5.33;4.80;;;16.30;99.90;;;;;;5114014;28;20439;-66
2021/06/13 00:06:09;;;;;;;8.13;5.13;;;16.30;99.90;;;;;;5114003;28;20812;-66
2021/06/13 00:08:37;;;;;;;5.77;5.27;;;16.30;99.90;;;;;;5114094;28;20464;-67
2021/06/13 00:11:04;;;;;;;4.63;4.20;;;16.20;99.90;;;;;;5113786;28;20472;-67
2021/06/13 00:13:31;;;;;;;7.83;4.43;;;16.20;99.90;;;;;;5113671;28;20848;-67
2021/06/13 00:15:57;;;;;;;4.90;4.50;;;16.20;99.90;;;;;;5113764;28;20458;-67
2021/06/13 00:18:24;;;;;;;4.97;4.50;;;16.10;99.90;;;;;;5113568;28;20471;-67
2021/06/13 00:20:52;;;;;;;5.67;4.60;;;16.00;99.90;;;;;;5113782;28;20447;-66
2021/06/13 00:23:19;;;;;;;6.13;5.57;;;16.00;99.90;;;;;;5113479;28;20955;-66
2021/06/13 00:25:47;;;;;;;5.03;4.53;;;15.90;99.90;;;;;;5113636;28;20921;-67
2021/06/13 00:28:14;;;;;;;10.13;4.87;;;15.90;99.90;;;;;;5113351;28;20964;-66
2021/06/13 00:30:41;;;;;;;4.93;4.43;;;15.90;99.90;;;;;;5112761;28;20479;-66
2021/06/13 00:33:08;;;;;;;6.80;4.23;;;15.90;99.90;;;;;;5113551;28;20443;-66
2021/06/13 00:35:35;;;;;;;5.00;4.60;;;15.90;99.90;;;;;;5113325;28;20431;-66
2021/06/13 00:38:04;;;;;;;6.10;4.90;;;16.00;99.90;;;;;;5113613;28;20820;-66
2021/06/13 00:40:32;;;;;;;5.57;4.30;;;15.90;99.90;;;;;;5113646;28;20539;-66
2021/06/13 00:43:00;;;;;;;4.60;4.20;;;15.90;99.90;;;;;;5113131;28;20438;-67
2021/06/13 00:45:28;;;;;;;5.70;5.10;;;15.90;99.90;;;;;;5112861;28;20504;-66
2021/06/13 00:47:54;;;;;;;6.87;5.37;;;15.90;99.90;;;;;;5113347;27;20874;-67
2021/06/13 00:50:29;;;;;;;5.97;4.80;;;15.90;99.90;;;;;;5105870;28;20490;-66
2021/06/13 00:52:57;;;;;;;5.97;4.80;;;15.80;99.90;;;;;;5113511;28;20815;-66
2021/06/13 00:55:24;;;;;;;5.87;4.40;;;15.80;99.90;;;;;;5112865;28;20467;-66
2021/06/13 00:57:51;;;;;;;10.60;4.63;;;15.70;99.90;;;;;;5113005;28;20460;-66
2021/06/13 01:00:20;;;;;;;7.33;4.47;;;15.70;99.90;;;;;;5112635;28;20436;-66
2021/06/13 01:02:46;;;;;;;5.20;4.70;;;15.70;99.90;;;;;;5113045;28;20998;-66
2021/06/13 01:05:14;;;;;;;6.30;5.70;;;15.70;99.90;;;;;;5113038;28;20447;-66
2021/06/13 01:07:48;;;;;;;4.70;4.30;;;15.80;99.90;;;;;;5112558;28;20531;-66
2021/06/13 01:10:25;;;;;;;7.10;5.23;;;15.80;99.90;;;;;;5112482;28;20513;-66
2021/06/13 01:12:58;;;;;;;5.97;5.37;;;15.70;99.90;;;;;;5113074;28;20468;-66
2021/06/13 01:15:33;;;;;;;5.60;4.97;;;15.80;99.90;;;;;;5112232;28;20432;-66
2021/06/13 01:18:04;;;;;;;6.00;5.40;;;15.80;99.90;;;;;;5092286;28;21003;-67
2021/06/13 01:20:33;;;;;;;5.70;5.20;;;15.90;99.90;;;;;;5103329;28;20831;-66
2021/06/13 01:23:28;;;;;;;6.17;5.57;;;15.90;99.90;;;;;;5112715;28;20433;-66
2021/06/13 01:26:21;;;;;;;5.30;4.80;;;15.90;99.90;;;;;;5112509;28;20505;-66
2021/06/13 01:29:09;;;;;;;6.40;4.90;;;16.00;99.90;;;;;;5112202;28;20464;-66
2021/06/13 01:31:38;;;;;;;6.60;5.27;;;16.00;99.90;;;;;;5112439;27;20468;-67
2021/06/13 01:34:09;;;;;;;5.53;5.03;;;16.10;99.90;;;;;;5112556;28;20842;-66
2021/06/13 01:36:37;;;;;;;6.20;5.40;;;16.10;99.90;;;;;;5112287;28;20443;-67
2021/06/13 01:39:09;;;;;;;5.63;5.13;;;16.10;99.90;;;;;;5112195;28;20475;-67
2021/06/13 01:41:37;;;;;;;6.30;5.47;;;16.20;99.90;;;;;;5112494;28;20629;-67
2021/06/13 01:44:06;;;;;;;7.40;5.03;;;16.20;99.90;;;;;;5112256;28;20439;-66
2021/06/13 01:46:38;;;;;;;5.50;5.00;;;16.20;99.90;;;;;;5111961;28;20456;-67
2021/06/13 01:49:05;;;;;;;6.50;5.60;;;16.20;99.90;;;;;;5112298;28;20451;-66
2021/06/13 01:51:32;;;;;;;5.40;4.90;;;16.20;99.90;;;;;;5105219;28;20533;-67
2021/06/13 01:54:01;;;;;;;6.97;5.10;;;16.20;99.90;;;;;;5112252;28;20435;-67
2021/06/13 01:56:28;;;;;;;5.70;5.20;;;16.20;99.90;;;;;;5112069;28;20440;-67
2021/06/13 01:58:58;;;;;;;7.87;5.70;;;16.20;99.90;;;;;;5112277;28;20459;-66
2021/06/13 02:01:27;;;;;;;6.03;5.43;;;16.20;99.90;;;;;;5112380;28;20440;-66
2021/06/13 02:03:58;;;;;;;6.43;5.83;;;16.20;99.90;;;;;;5115778;28;20432;-66
2021/06/13 02:06:29;;;;;;;5.90;5.10;;;16.20;99.90;;;;;;5116439;28;20508;-67
2021/06/13 02:08:59;;;;;;;7.13;5.70;;;16.20;99.90;;;;;;5116200;28;20983;-66
2021/06/13 02:11:27;;;;;;;5.97;5.37;;;16.20;99.90;;;;;;5116047;28;20475;-69
2021/06/13 02:13:55;;;;;;;7.67;5.40;;;16.20;99.90;;;;;;5115995;28;20444;-68
2021/06/13 02:16:22;;;;;;;8.13;5.57;;;16.20;99.90;;;;;;5115805;28;20636;-67
2021/06/13 02:18:51;;;;;;;6.70;5.73;;;16.20;99.90;;;;;;5115780;28;20452;-67
2021/06/13 02:21:19;;;;;;;8.70;5.97;;;16.20;99.90;;;;;;5109024;28;20432;-68
2021/06/13 02:23:46;;;;;;;7.33;6.57;;;16.20;99.90;;;;;;5115950;28;20553;-68
2021/06/13 02:26:14;;;;;;;9.20;6.17;;;16.10;99.90;;;;;;5115774;28;20424;-68
2021/06/13 02:28:44;;;;;;;8.33;5.73;;;16.10;99.90;;;;;;5115129;28;20502;-68
2021/06/13 02:31:12;;;;;;;7.70;6.47;;;16.10;99.90;;;;;;5115795;28;20471;-68
2021/06/13 02:33:41;;;;;;;7.10;5.33;;;16.00;99.90;;;;;;5115701;28;20436;-68
2021/06/13 02:36:08;;;;;;;7.83;6.77;;;16.00;99.90;;;;;;5115621;28;20447;-68
2021/06/13 02:38:36;;;;;;;6.70;6.00;;;15.90;99.90;;;;;;5115613;28;20452;-69
2021/06/13 02:41:02;;;;;;;7.40;6.30;;;15.90;99.90;;;;;;5115487;28;20855;-68
2021/06/13 02:43:29;;;;;;;7.80;6.43;;;15.90;99.90;;;;;;5115681;28;21006;-68
2021/06/13 02:45:56;;;;;;;7.77;6.20;;;15.90;99.90;;;;;;5115138;28;20451;-67
2021/06/13 02:48:23;;;;;;;7.83;6.30;;;15.80;99.90;;;;;;5115399;28;20463;-68
2021/06/13 02:50:51;;;;;;;8.37;6.20;;;15.80;99.90;;;;;;5115191;28;20479;-68
2021/06/13 02:53:24;;;;;;;7.63;6.67;;;15.70;99.90;;;;;;5115235;28;20436;-68
2021/06/13 02:55:58;;;;;;;10.53;6.90;;;15.70;99.90;;;;;;5115325;28;20805;-67
2021/06/13 02:58:36;;;;;;;9.73;6.63;;;15.70;99.90;;;;;;5115433;28;21044;-67
2021/06/13 03:01:05;;;;;;;10.03;7.17;;;15.60;99.90;;;;;;5115082;28;20435;-68
2021/06/13 03:03:34;;;;;;;11.63;6.70;;;15.60;99.90;;;;;;5115073;28;20436;-68
2021/06/13 03:06:04;;;;;;;10.23;6.53;;;15.60;99.90;;;;;;5114721;28;20451;-68
2021/06/13 03:08:30;;;;;;;11.87;7.63;;;15.50;99.90;;;;;;5115003;28;20463;-68
2021/06/13 03:10:58;;;;;;;7.40;6.43;;;15.50;99.90;;;;;;5115006;28;20475;-68
2021/06/13 03:13:27;;;;;;;13.87;6.63;;;15.40;99.90;;;;;;5114612;28;20447;-67
2021/06/13 03:15:54;;;;;;;7.33;6.17;;;15.50;99.90;;;;;;5114572;28;20462;-68
2021/06/13 03:18:21;;;;;;;9.67;7.60;;;15.40;99.90;;;;;;5114818;27;20455;-68
2021/06/13 03:20:50;;;;;;;7.73;5.60;;;15.40;99.90;;;;;;5108185;28;20440;-68
2021/06/13 03:23:17;;;;;;;9.60;6.40;;;15.30;99.90;;;;;;5114879;28;20436;-68
2021/06/13 03:25:44;;;;;;;8.90;7.10;;;15.30;99.90;;;;;;5114646;28;20448;-68
2021/06/13 03:28:13;;;;;;;8.17;7.17;;;15.30;99.90;;;;;;5114705;28;20466;-68
2021/06/13 03:30:40;;;;;;;19.43;7.17;;;15.20;99.90;;;;;;5113935;28;20468;-68
2021/06/13 03:33:08;;;;;;;10.00;6.97;;;15.20;99.90;;;;;;5114821;28;20489;-68
2021/06/13 03:35:35;;;;;;;9.20;6.90;;;15.10;99.90;;;;;;5114490;28;20492;-68
2021/06/13 03:38:03;;;;;;;11.20;6.63;;;15.10;99.90;;;;;;5114233;28;20463;-68
2021/06/13 03:40:31;;;;;;;8.37;7.07;;;15.20;99.90;;;;;;5114468;28;20435;-68
2021/06/13 03:42:59;;;;;;;8.97;6.63;;;15.20;99.90;;;;;;5114220;28;20433;-68
2021/06/13 03:45:28;;;;;;;8.90;6.93;;;15.20;99.90;;;;;;5113699;28;20455;-68
2021/06/13 03:47:58;;;;;;;9.27;7.70;;;15.20;99.90;;;;;;5114455;28;20459;-68
2021/06/13 03:50:27;;;;;;;9.33;6.30;;;15.20;99.90;;;;;;5107405;28;20467;-68
2021/06/13 03:52:54;;;;;;;9.07;7.07;;;15.20;99.90;;;;;;5114047;28;20432;-68
2021/06/13 03:55:21;;;;;;;10.83;7.10;;;15.20;99.90;;;;;;5114057;28;20440;-68
2021/06/13 03:57:51;;;;;;;12.80;7.53;;;15.20;99.90;;;;;;5113845;28;20983;-68
2021/06/13 04:00:19;;;;;;;16.33;6.97;;;15.20;99.90;;;;;;5114056;28;20861;-68
2021/06/13 04:02:49;;;;;;;7.67;6.80;;;15.20;99.90;;;;;;5114213;28;20439;-67
2021/06/13 04:05:18;;;;;;;10.13;6.60;;;15.20;99.90;;;;;;5113852;28;20477;-68
2021/06/13 04:07:46;;;;;;;11.57;7.93;;;15.20;99.90;;;;;;5113733;28;20468;-69
2021/06/13 04:10:14;;;;;;;9.07;7.90;;;15.10;99.90;;;;;;5113612;28;20439;-67
2021/06/13 04:12:42;;;;;;;9.50;6.73;;;15.10;99.90;;;;;;5113758;28;20440;-68
2021/06/13 04:15:09;;;;;;;10.13;7.40;;;15.10;99.90;;;;;;5113932;28;20465;-68
2021/06/13 04:17:38;;;;;;;9.50;7.67;;;15.10;99.90;;;;;;5113420;28;20469;-67
2021/06/13 04:20:11;;;;;;;8.33;6.13;;;15.10;99.90;;;;;;5113527;28;20451;-67
2021/06/13 04:22:40;;;;;;;12.83;6.90;;;15.10;99.90;;;;;;5113334;28;20439;-68
2021/06/13 04:25:09;;;;;;;8.43;6.90;;;15.10;99.90;;;;;;5113012;28;20444;-68
2021/06/13 04:27:37;;;;;;;9.23;6.93;;;15.10;99.90;;;;;;5113202;28;20956;-68
2021/06/13 04:30:06;;;;;;;10.17;7.30;;;15.20;99.90;;;;;;5113070;28;20466;-66
2021/06/13 04:32:33;;;;;;;11.10;7.30;;;15.10;99.90;;;;;;5113493;27;20991;-68
2021/06/13 04:35:00;;;;;;;9.77;7.63;;;15.20;99.90;;;;;;5114114;28;20967;-67
2021/06/13 04:37:28;;;;;;;12.10;7.00;;;15.20;99.90;;;;;;5113383;28;20456;-67
2021/06/13 04:40:02;;;;;;;10.10;6.93;;;15.30;99.90;;;;;;5114029;28;20447;-68
2021/06/13 04:42:30;;;;;;;11.67;7.40;;;15.30;99.90;;;;;;5113705;28;20519;-68
2021/06/13 04:44:58;;;;;;;10.30;7.13;;;15.40;99.90;;;;;;5112911;28;20526;-69
2021/06/13 04:47:25;;;;;;;9.53;7.77;;;15.40;99.90;;;;;;5112877;28;20516;-68
2021/06/13 04:49:55;;;;;;;11.67;7.50;;;15.50;99.90;;;;;;5113313;28;20444;-67
2021/06/13 04:52:24;;;;;;;11.30;8.00;;;15.50;99.90;;;;;;5113317;28;20503;-68
2021/06/13 04:55:17;;;;;;;10.17;7.07;;;15.60;99.90;;;;;;5113105;28;20846;-67
2021/06/13 04:58:07;;;;;;;9.83;7.30;;;15.70;99.90;;;;;;5112811;28;20794;-67
2021/06/13 05:00:37;;;;;;;9.83;7.77;;;15.70;99.90;;;;;;5103557;28;20447;-67
2021/06/13 05:03:06;;;;;;;10.03;6.83;;;15.80;99.90;;;;;;5112978;28;20937;-66
2021/06/13 05:05:34;;;;;;;10.57;7.73;;;15.70;99.90;;;;;;5112581;28;20457;-67
2021/06/13 05:08:01;;;;;;;10.77;7.90;;;15.70;99.90;;;;;;5112693;28;20460;-67
2021/06/13 05:10:29;;;;;;;8.23;6.03;;;15.70;99.90;;;;;;5112665;28;20959;-67
2021/06/13 05:12:56;;;;;;;10.03;8.63;;;15.70;99.90;;;;;;5113245;28;20785;-67
2021/06/13 05:15:24;;;;;;;10.37;8.07;;;15.70;99.90;;;;;;5112687;28;20440;-67
2021/06/13 05:17:52;;;;;;;9.93;6.93;;;15.60;99.90;;;;;;5112632;28;20463;-67
2021/06/13 05:20:20;;;;;;;10.30;8.77;;;15.70;99.90;;;;;;5105863;28;20928;-67
2021/06/13 05:22:55;;;;;;;10.80;7.57;;;15.70;99.90;;;;;;5112901;28;20443;-67
2021/06/13 05:25:23;;;;;;;12.70;7.80;;;15.70;99.90;;;;;;5112657;28;20439;-67
2021/06/13 05:27:51;;;;;;;8.43;7.00;;;15.70;99.90;;;;;;5112537;28;20467;-67
2021/06/13 05:30:19;;;;;;;15.13;9.17;;;15.70;99.90;;;;;;5112187;28;20812;-67
2021/06/13 05:32:46;;;;;;;10.80;7.93;;;15.70;99.90;;;;;;5112507;28;20476;-67
2021/06/13 05:35:14;;;;;;;11.10;8.70;;;15.80;99.90;;;;;;5112639;28;21071;-67
2021/06/13 05:37:42;;;;;;;11.50;8.03;;;15.80;99.90;;;;;;5112215;28;20459;-67
2021/06/13 05:40:10;;;;;;;23.73;8.30;;;15.90;99.90;;;;;;5112286;28;20467;-67
2021/06/13 05:42:38;;;;;;;8.63;7.23;;;16.00;99.90;;;;;;5111903;28;20477;-67
2021/06/13 05:45:09;;;;;;;9.07;7.63;;;16.00;99.90;;;;;;5111471;28;20434;-67
2021/06/13 05:47:38;;;;;;;9.33;8.13;;;16.10;99.90;;;;;;5111328;28;20481;-67
2021/06/13 05:50:08;;;;;;;14.13;8.33;;;16.10;99.90;;;;;;5111428;28;20458;-67
2021/06/13 05:52:35;;;;;;;11.73;8.20;;;16.10;99.90;;;;;;5111843;28;20479;-67
2021/06/13 05:55:02;;;;;;;10.40;8.60;;;16.20;99.90;;;;;;5110388;28;20432;-67
2021/06/13 05:57:32;;;;;;;15.20;9.47;;;16.20;99.90;;;;;;5111638;28;20463;-67
2021/06/13 05:59:59;;;;;;;17.17;10.10;;;16.20;99.90;;;;;;5111875;28;20846;-67
2021/06/13 06:02:28;;;;;;;11.53;8.63;;;16.30;99.90;;;;;;5112671;28;20940;-67
2021/06/13 06:05:08;;;;;;;10.20;8.00;;;16.30;99.90;;;;;;5112259;28;20429;-68
2021/06/13 06:07:35;;;;;;;12.03;7.43;;;16.30;99.90;;;;;;5109140;28;20436;-67
2021/06/13 06:10:03;;;;;;;14.93;7.80;;;16.40;99.90;;;;;;5108956;28;20439;-67
2021/06/13 06:12:30;;;;;;;9.03;7.40;;;16.50;99.90;;;;;;5110943;28;20476;-67
2021/06/13 06:14:57;;;;;;;11.07;7.70;;;16.50;99.90;;;;;;5111174;28;20435;-67
2021/06/13 06:17:24;;;;;;;11.10;8.27;;;16.60;99.90;;;;;;5110301;28;20452;-67
2021/06/13 06:19:53;;;;;;;12.20;8.67;;;16.60;99.90;;;;;;5109740;28;20435;-67
2021/06/13 06:22:20;;;;;;;14.53;7.33;;;16.70;99.90;;;;;;5110442;28;20428;-67
2021/06/13 06:24:47;;;;;;;11.57;7.87;;;16.70;99.90;;;;;;5112351;28;20917;-67
2021/06/13 06:27:14;;;;;;;11.17;7.87;;;16.80;99.90;;;;;;5111207;28;20432;-69
2021/06/13 06:29:41;;;;;;;13.90;8.00;;;16.80;99.90;;;;;;5110937;28;20432;-68
2021/06/13 06:32:09;;;;;;;13.30;8.23;;;16.90;99.90;;;;;;5111308;28;20995;-67
2021/06/13 06:34:36;;;;;;;11.37;7.37;;;16.90;99.90;;;;;;5111369;28;20424;-67
2021/06/13 06:37:09;;;;;;;10.13;7.37;;;16.90;99.90;;;;;;5111186;28;20973;-67
2021/06/13 06:39:36;;;;;;;14.50;7.67;;;16.90;99.90;;;;;;5109201;28;20766;-67
2021/06/13 06:42:04;;;;;;;9.97;8.50;;;16.90;99.90;;;;;;5111645;28;20804;-67
2021/06/13 06:44:31;;;;;;;11.67;7.07;;;17.00;99.90;;;;;;5111227;28;20428;-67
2021/06/13 06:47:01;;;;;;;9.90;7.67;;;17.10;99.90;;;;;;5111048;28;20436;-67
2021/06/13 06:49:29;;;;;;;11.00;7.33;;;17.20;99.90;;;;;;5114198;28;20492;-67
2021/06/13 06:51:56;;;;;;;9.20;7.30;;;17.30;99.90;;;;;;5112048;28;20524;-67
2021/06/13 06:54:25;;;;;;;12.33;8.13;;;17.40;99.90;;;;;;5115575;28;20443;-70
2021/06/13 06:56:52;;;;;;;10.90;6.87;;;17.50;99.90;;;;;;5115290;28;20485;-69
2021/06/13 06:59:19;;;;;;;10.73;8.40;;;17.50;99.90;;;;;;5115487;28;20869;-67
2021/06/13 07:01:47;;;;;;;13.10;7.97;;;17.50;99.90;;;;;;5115358;28;20519;-68
2021/06/13 07:04:14;;;;;;;9.63;7.10;;;17.70;99.90;;;;;;5115161;28;20432;-68
2021/06/13 07:06:41;;;;;;;10.23;7.60;;;17.70;99.90;;;;;;5115263;28;20800;-68
2021/06/13 07:09:08;;;;;;;14.40;7.67;;;17.90;99.90;;;;;;5115386;28;20872;-68
2021/06/13 07:11:36;;;;;;;10.50;7.20;;;18.00;99.90;;;;;;5115008;28;20494;-65
2021/06/13 07:14:04;;;;;;;12.47;7.63;;;18.00;99.90;;;;;;5115003;28;20432;-67
2021/06/13 07:16:31;;;;;;;11.43;8.10;;;18.10;99.90;;;;;;5114573;28;20801;-67
2021/06/13 07:18:58;;;;;;;11.17;7.40;;;18.20;99.90;;;;;;5114690;28;20460;-67
2021/06/13 07:21:25;;;;;;;13.83;7.73;;;18.20;99.90;;;;;;5108058;28;20424;-66
2021/06/13 07:23:52;;;;;;;9.00;6.20;;;18.20;99.90;;;;;;5114809;28;20440;-66
2021/06/13 07:26:19;;;;;;;7.63;6.83;;;18.30;99.90;;;;;;5114684;28;20928;-66
2021/06/13 07:28:48;;;;;;;11.53;8.00;;;18.40;99.90;;;;;;5114763;28;20828;-65
2021/06/13 07:31:15;;;;;;;10.47;7.93;;;18.40;99.90;;;;;;5114383;28;20432;-67
2021/06/13 07:33:42;;;;;;;10.80;7.30;;;18.50;99.90;;;;;;5114691;28;20816;-67
2021/06/13 07:36:09;;;;;;;11.63;6.20;;;18.50;99.90;;;;;;5114680;28;20436;-67
2021/06/13 07:38:37;;;;;;;9.43;7.30;;;18.60;99.90;;;;;;5114659;28;20455;-68
2021/06/13 07:41:04;;;;;;;7.90;6.43;;;18.70;99.90;;;;;;5114626;28;20493;-67
2021/06/13 07:43:31;;;;;;;8.63;6.00;;;18.80;99.90;;;;;;5114477;28;20436;-67
2021/06/13 07:45:59;;;;;;;12.10;7.30;;;18.90;99.90;;;;;;5113699;28;20451;-67
2021/06/13 07:48:27;;;;;;;13.90;9.60;;;18.90;99.90;;;;;;5114298;28;20459;-67
2021/06/13 07:50:54;;;;;;;12.97;6.67;;;19.00;99.90;;;;;;5114340;28;20839;-66
2021/06/13 07:53:21;;;;;;;10.17;6.80;;;19.00;99.90;;;;;;5114293;28;20472;-67
2021/06/13 07:55:48;;;;;;;10.07;6.77;;;18.90;99.90;;;;;;5113948;28;20441;-67
2021/06/13 07:58:15;;;;;;;10.40;7.60;;;19.10;99.90;;;;;;5114104;28;20470;-67
2021/06/13 08:00:42;;;;;;;12.17;7.67;;;19.10;99.90;;;;;;5112616;27;20456;-67
2021/06/13 08:03:10;;;;;;;10.03;6.60;;;19.20;99.90;;;;;;5114105;28;20436;-67
2021/06/13 08:05:38;;;;;;;11.10;7.07;;;18.90;99.90;;;;;;5113837;28;20447;-67
2021/06/13 08:08:06;;;;;;;7.53;6.30;;;18.80;99.90;;;;;;5114090;28;20493;-67
2021/06/13 08:10:35;;;;;;;8.23;6.77;;;18.90;99.90;;;;;;5113817;28;20465;-67
2021/06/13 08:13:02;;;;;;;8.53;6.10;;;19.00;99.90;;;;;;5113679;28;21056;-67
2021/06/13 08:15:30;;;;;;;8.80;5.40;;;19.20;99.90;;;;;;5113374;28;20465;-67
2021/06/13 08:17:57;;;;;;;7.97;6.60;;;19.50;99.90;;;;;;5113939;28;20813;-67
2021/06/13 08:20:27;;;;;;;10.27;6.30;;;19.70;99.90;;;;;;5110036;28;20448;-68
2021/06/13 08:22:54;;;;;;;7.80;6.20;;;19.90;99.90;;;;;;5115715;27;20871;-67
2021/06/13 08:25:21;;;;;;;9.40;6.40;;;19.90;99.90;;;;;;5118175;27;20442;-68
2021/06/13 08:27:48;;;;;;;9.93;5.40;;;19.90;99.90;;;;;;5133568;27;20459;-67
2021/06/13 08:30:18;;;;;;;14.93;6.13;;;20.00;99.90;;;;;;5133584;27;20435;-67
2021/06/13 08:32:46;;;;;;;7.90;5.73;;;20.00;99.90;;;;;;5133872;27;20966;-66
2021/06/13 08:35:14;;;;;;;8.97;6.23;;;19.90;99.90;;;;;;5133836;27;20778;-67
2021/06/13 08:37:43;;;;;;;8.63;7.57;;;19.80;99.90;;;;;;5127092;27;20459;-67
2021/06/13 08:40:12;;;;;;;8.90;6.27;;;19.90;99.90;;;;;;5112950;28;20440;-67
2021/06/13 08:42:41;;;;;;;11.17;7.17;;;20.00;99.90;;;;;;5113183;28;20805;-67
2021/06/13 08:45:11;;;;;;;11.03;5.53;;;20.00;99.90;;;;;;5112687;28;20451;-67
2021/06/13 08:47:39;;;;;;;10.00;5.23;;;19.70;99.90;;;;;;5112512;28;20483;-67
2021/06/13 08:50:08;;;;;;;7.17;5.20;;;19.60;99.90;;;;;;5106033;28;20848;-67
2021/06/13 08:52:35;;;;;;;11.23;5.17;;;19.70;99.90;;;;;;5112674;28;21045;-66
2021/06/13 08:55:05;;;;;;;8.13;5.47;;;19.80;99.90;;;;;;5113069;28;20440;-66
2021/06/13 08:57:32;;;;;;;7.83;5.97;;;19.90;99.90;;;;;;5112827;28;20898;-68
2021/06/13 08:59:59;;;;;;;6.33;4.40;;;20.20;99.90;;;;;;5112499;28;20488;-67
2021/06/13 09:02:26;;;;;;;8.10;4.97;;;20.50;99.90;;;;;;5112832;28;20432;-67
2021/06/13 09:04:54;;;;;;;6.00;5.33;;;20.70;99.90;;;;;;5112474;28;20443;-67
2021/06/13 09:07:24;;;;;;;5.70;4.53;;;20.80;99.90;;;;;;5112669;28;20456;-67
2021/06/13 09:09:51;;;;;;;5.93;4.77;;;20.50;99.90;;;;;;5112734;28;20936;-67
2021/06/13 09:12:20;;;;;;;7.07;4.27;;;20.20;99.90;;;;;;5112225;28;20468;-67
2021/06/13 09:14:50;;;;;;;4.73;4.20;;;20.10;99.90;;;;;;5123721;27;20439;-69
2021/06/13 09:17:21;;;;;;;5.03;4.53;;;19.90;99.90;;;;;;5112124;28;20444;-67
2021/06/13 09:20:09;;;;;;;8.20;5.57;;;19.80;99.90;;;;;;5107495;28;20456;-67
2021/06/13 09:22:37;;;;;;;6.53;5.40;;;19.70;99.90;;;;;;5106094;28;20786;-67
2021/06/13 09:25:06;;;;;;;12.73;4.80;;;19.80;99.90;;;;;;5112548;28;20447;-68
2021/06/13 09:27:37;;;;;;;7.00;5.80;;;20.00;99.90;;;;;;5112489;28;20471;-69
2021/06/13 09:30:05;;;;;;;5.53;4.30;;;20.20;99.90;;;;;;5112533;28;20772;-68
2021/06/13 09:32:54;;;;;;;5.60;4.67;;;20.10;99.90;;;;;;5112468;28;20486;-68
2021/06/13 09:35:22;;;;;;;5.47;4.73;;;20.50;99.90;;;;;;5111881;28;20809;-68
2021/06/13 09:38:15;;;;;;;6.50;4.70;;;20.70;99.90;;;;;;5112117;28;20460;-68
2021/06/13 09:40:46;;;;;;;6.70;4.93;;;20.40;99.90;;;;;;5096368;28;20462;-68
2021/06/13 09:43:17;;;;;;;4.83;4.27;;;20.20;99.90;;;;;;5114275;28;20435;-68
2021/06/13 09:46:03;;;;;;;5.70;4.20;;;20.00;99.90;;;;;;5132010;28;20447;-68
2021/06/13 09:48:31;;;;;;;5.03;4.20;;;19.80;99.90;;;;;;5115953;27;20463;-68
2021/06/13 09:51:02;;;;;;;10.63;3.93;;;19.80;99.90;;;;;;5109022;28;20527;-68
2021/06/13 09:53:35;;;;;;;5.27;4.43;;;20.00;99.90;;;;;;5108939;28;20468;-68
2021/06/13 09:56:25;;;;;;;8.10;4.53;;;20.30;99.90;;;;;;5111430;28;20432;-68
2021/06/13 09:59:00;;;;;;;6.23;4.90;;;20.60;99.90;;;;;;5103696;28;20460;-67
2021/06/13 10:01:30;;;;;;;7.20;4.40;;;21.00;99.90;;;;;;5111625;28;20903;-67
2021/06/13 10:03:58;;;;;;;6.63;4.57;;;21.30;99.90;;;;;;5111501;28;20460;-68
2021/06/13 10:06:29;;;;;;;5.77;4.37;;;21.30;99.90;;;;;;5111760;28;20437;-67
2021/06/13 10:08:57;;;;;;;4.63;4.23;;;21.10;99.90;;;;;;5111173;28;20986;-68
2021/06/13 10:11:24;;;;;;;4.73;4.17;;;21.00;99.90;;;;;;5111657;28;20456;-68
2021/06/13 10:13:55;;;;;;;5.10;3.47;;;20.70;99.90;;;;;;5111425;28;20555;-67
2021/06/13 10:16:25;;;;;;;4.97;3.87;;;20.40;99.90;;;;;;5107634;28;20517;-67
2021/06/13 10:18:54;;;;;;;4.63;3.40;;;20.10;99.90;;;;;;5096028;28;20475;-68
2021/06/13 10:21:22;;;;;;;3.50;3.20;;;19.90;99.90;;;;;;5109953;28;20442;-68
2021/06/13 10:23:50;;;;;;;4.07;3.17;;;20.00;99.90;;;;;;5111256;28;20466;-68
2021/06/13 10:26:17;;;;;;;3.50;3.20;;;20.30;99.90;;;;;;5115435;28;20901;-68
2021/06/13 10:28:45;;;;;;;4.93;3.50;;;20.70;99.90;;;;;;5114416;28;20460;-68
2021/06/13 10:31:14;;;;;;;5.07;3.47;;;21.00;99.90;;;;;;5112606;28;20466;-68
2021/06/13 10:33:41;;;;;;;5.23;3.77;;;21.30;99.90;;;;;;5114963;28;20477;-67
2021/06/13 10:36:09;;;;;;;4.37;3.97;;;21.50;99.90;;;;;;5116023;27;20432;-67
2021/06/13 10:38:37;;;;;;;3.60;3.30;;;21.60;99.90;;;;;;5115247;28;20477;-67
2021/06/13 10:41:05;;;;;;;5.13;3.50;;;21.40;99.90;;;;;;5115037;28;20436;-66
2021/06/13 10:43:32;;;;;;;6.73;3.10;;;21.20;99.90;;;;;;5115150;28;20989;-66
2021/06/13 10:46:08;;;;;;;3.83;2.90;;;21.20;99.90;;;;;;5114430;28;20446;-67
2021/06/13 10:48:46;;;;;;;2.60;2.40;;;21.50;99.90;;;;;;5112798;28;20459;-66
2021/06/13 10:51:44;;;;;;;4.80;3.07;;;21.90;99.90;;;;;;5110085;28;20440;-67
2021/06/13 10:54:29;;;;;;;4.90;3.10;;;22.00;99.90;;;;;;5113195;28;20464;-66
2021/06/13 10:57:12;;;;;;;7.43;3.20;;;22.50;99.90;;;;;;5110914;27;20475;-68
2021/06/13 10:59:41;;;;;;;4.10;3.23;;;22.60;99.90;;;;;;5116004;27;20924;-67
2021/06/13 11:02:11;;;;;;;3.03;2.73;;;22.70;99.90;;;;;;5114352;28;20470;-66
2021/06/13 11:04:50;;;;;;;5.00;3.40;;;22.80;99.90;;;;;;5114981;28;20528;-67
2021/06/13 11:07:54;;;;;;;3.90;3.30;;;23.00;99.90;;;;;;5111804;27;20429;-66
2021/06/13 11:10:26;;;;;;;3.03;2.57;;;23.00;99.90;;;;;;5115472;27;20428;-65
2021/06/13 11:13:00;;;;;;;2.93;2.63;;;23.10;99.90;;;;;;5113894;28;20464;-65
2021/06/13 11:15:45;;;;;;;5.57;2.83;;;23.10;99.90;;;;;;5110773;27;20440;-65
2021/06/13 11:18:28;;;;;;;2.80;2.47;;;23.30;99.90;;;;;;5106047;27;20556;-67
2021/06/13 11:21:07;;;;;;;3.83;2.63;;;23.40;99.90;;;;;;5109351;28;20516;-65
2021/06/13 11:23:48;;;;;;;2.90;2.47;;;23.50;99.90;;;;;;5112371;28;20427;-65
2021/06/13 11:26:39;;;;;;;3.00;2.37;;;23.30;99.90;;;;;;5110603;28;20420;-65
2021/06/13 11:29:16;;;;;;;3.37;2.33;;;23.30;99.90;;;;;;5112736;28;20983;-67
2021/06/13 11:31:53;;;;;;;4.63;3.03;;;23.50;99.90;;;;;;5121820;27;20493;-67
2021/06/13 11:34:22;;;;;;;3.43;3.13;;;23.70;99.90;;;;;;5119686;27;20467;-68
2021/06/13 11:36:51;;;;;;;3.63;3.17;;;23.90;99.90;;;;;;5112521;28;20436;-66
2021/06/13 11:39:27;;;;;;;2.67;2.37;;;24.00;99.90;;;;;;5113130;28;20460;-66
2021/06/13 11:42:15;;;;;;;3.20;2.90;;;24.20;99.90;;;;;;5111262;28;20456;-66
2021/06/13 11:44:53;;;;;;;3.30;3.00;;;24.20;99.90;;;;;;5112665;28;20424;-67
2021/06/13 11:47:33;;;;;;;3.87;2.73;;;24.20;99.90;;;;;;5111683;28;20467;-67
2021/06/13 11:50:02;;;;;;;2.67;2.47;;;24.30;99.90;;;;;;5112447;28;20853;-66
2021/06/13 11:52:55;;;;;;;3.40;3.10;;;24.20;99.90;;;;;;5113156;28;20436;-68
2021/06/13 11:55:56;;;;;;;5.20;3.33;;;24.10;99.90;;;;;;5109992;28;20435;-68
2021/06/13 11:58:35;;;;;;;3.10;2.80;;;24.20;99.90;;;;;;5112796;28;20444;-67
2021/06/13 12:01:04;;;;;;;2.70;2.47;;;24.30;99.90;;;;;;5112730;28;20479;-68
2021/06/13 12:03:31;;;;;;;3.90;2.93;;;24.20;99.70;;;;;;5113900;28;20436;-69
2021/06/13 12:06:17;;;;;;;3.30;2.93;;;24.40;99.90;;;;;;5113559;28;20436;-69
2021/06/13 12:08:50;;;;;;;4.17;2.67;;;24.70;99.90;;;;;;5113758;28;20460;-69
2021/06/13 12:11:38;;;;;;;3.33;2.73;;;24.80;99.90;;;;;;5113670;28;20448;-69
2021/06/13 12:14:29;;;;;;;6.10;2.53;;;25.00;99.90;;;;;;5113827;28;20476;-70
2021/06/13 12:16:59;;;;;;;3.73;2.80;;;25.20;99.90;;;;;;5113206;28;20455;-69
2021/06/13 12:19:32;;;;;;;2.97;2.70;;;25.30;99.20;;;;;;5106611;27;20431;-70
2021/06/13 12:22:28;;;;;;;2.63;2.40;;;25.50;98.80;;;;;;5121334;27;20442;-70
2021/06/13 12:27:45;;;;;;;3.30;2.73;;;25.90;97.90;;;;;;5113353;28;20513;-69
2021/06/13 12:30:14;;;;;;;2.90;2.70;;;26.00;99.20;;;;;;5113387;28;20860;-69
2021/06/13 12:32:43;;;;;;;3.20;2.33;;;26.30;98.90;;;;;;5113036;28;20440;-69
2021/06/13 12:35:13;;;;;;;3.40;3.10;;;26.50;97.60;;;;;;5108907;27;20450;-71
2021/06/13 12:37:41;;;;;;;2.77;2.50;;;26.60;98.60;;;;;;5125041;27;20458;-70
2021/06/13 12:40:13;;;;;;;2.50;2.27;;;26.60;97.10;;;;;;5125272;27;20982;-68
2021/06/13 12:42:41;;;;;;;3.27;2.40;;;26.20;96.00;;;;;;5133988;27;20445;-68
2021/06/13 12:45:11;;;;;;;3.03;2.53;;;26.30;98.60;;;;;;5133577;27;20816;-69
2021/06/13 12:47:39;;;;;;;2.90;2.43;;;26.40;96.40;;;;;;5133059;27;20459;-69
2021/06/13 12:50:08;;;;;;;2.93;2.63;;;26.40;95.90;;;;;;5125484;27;20444;-69
2021/06/13 12:52:37;;;;;;;3.60;2.97;;;26.50;99.00;;;;;;5112575;28;20432;-69
2021/06/13 12:55:07;;;;;;;7.40;2.77;;;26.50;99.00;;;;;;5112839;28;20475;-68
2021/06/13 12:57:40;;;;;;;3.47;2.97;;;26.70;98.90;;;;;;5112254;28;20456;-68
2021/06/13 13:00:10;;;;;;;4.20;2.83;;;26.80;95.40;;;;;;5111440;28;20448;-67
2021/06/13 13:02:37;;;;;;;3.30;2.87;;;26.90;96.80;;;;;;5109130;28;20432;-67